Time;durP1;ratioP1;P1;durP2;ratioP2;P2;SDS_P1;SDS_P2;PMS_P1;PMS_P2;Temp;Humidity;BMP_temperature;BMP_pressure;BME280_temperature;BME280_humidity;BME280_pressure;Samples;Min_cycle;Max_cycle;Signal;HPM_P1;HPM_P2
2022/08/27 00:03:23;;;;;;;19.15;17.15;;;26.20;65.40;;;;;;4787654;55;21087;-28
2022/08/27 00:08:24;;;;;;;19.45;17.55;;;26.20;65.50;;;;;;4760855;55;21008;-33
2022/08/27 00:13:25;;;;;;;19.12;17.30;;;26.20;65.40;;;;;;4772235;55;21541;-33
2022/08/27 00:18:26;;;;;;;18.77;16.75;;;26.20;65.40;;;;;;4737377;59;21068;-33
2022/08/27 00:23:27;;;;;;;18.42;16.42;;;26.20;65.40;;;;;;4770395;55;20995;-30
2022/08/27 00:28:29;;;;;;;18.73;16.80;;;26.20;65.90;;;;;;4736206;59;21119;-34
2022/08/27 00:33:31;;;;;;;18.92;17.12;;;26.20;65.40;;;;;;4749757;55;21111;-34
2022/08/27 00:38:32;;;;;;;18.25;16.45;;;26.20;65.40;;;;;;4754461;55;21269;-29
2022/08/27 00:43:47;;;;;;;19.55;17.55;;;26.10;65.30;;;;;;4741368;55;22139;-29
2022/08/27 00:48:51;;;;;;;18.87;16.97;;;26.20;65.40;;;;;;4768205;55;21493;-34
2022/08/27 00:53:53;;;;;;;18.45;16.55;;;26.20;65.40;;;;;;4751388;55;21529;-33
2022/08/27 00:58:55;;;;;;;18.27;16.48;;;26.20;65.40;;;;;;4761495;55;21008;-36
2022/08/27 01:04:00;;;;;;;17.92;16.12;;;26.20;65.40;;;;;;4748418;55;20963;-33
2022/08/27 01:09:10;;;;;;;18.60;16.60;;;26.20;65.40;;;;;;4757800;55;21008;-32
2022/08/27 01:14:12;;;;;;;17.75;16.05;;;26.20;65.40;;;;;;4752858;55;21036;-28
2022/08/27 01:20:01;;;;;;;17.23;15.40;;;26.10;65.30;;;;;;4736698;59;21529;-25
2022/08/27 01:25:07;;;;;;;17.37;15.73;;;26.20;65.40;;;;;;4745758;55;21656;-31
2022/08/27 01:30:12;;;;;;;17.35;15.65;;;26.10;65.30;;;;;;4743232;55;21079;-35
2022/08/27 01:35:15;;;;;;;18.98;16.98;;;26.10;65.30;;;;;;4763807;55;21007;-27
2022/08/27 01:40:18;;;;;;;18.55;16.27;;;26.20;65.30;;;;;;4754059;55;21028;-29
2022/08/27 01:45:29;;;;;;;16.48;14.87;;;26.20;65.40;;;;;;4758874;55;21536;-32
2022/08/27 01:50:34;;;;;;;17.65;15.57;;;26.10;65.30;;;;;;4740795;55;21078;-34
2022/08/27 01:55:37;;;;;;;17.17;15.40;;;26.20;65.40;;;;;;4776547;55;21051;-27
2022/08/27 02:00:41;;;;;;;17.60;15.85;;;26.10;65.20;;;;;;4752116;55;20983;-28
2022/08/27 02:05:42;;;;;;;16.35;14.68;;;26.10;65.30;;;;;;4753759;55;21099;-30
2022/08/27 02:10:45;;;;;;;16.48;14.87;;;26.10;65.20;;;;;;4811915;55;21639;-35
2022/08/27 02:15:46;;;;;;;17.00;15.20;;;26.10;65.20;;;;;;4765810;55;20994;-30
2022/08/27 02:20:47;;;;;;;16.87;15.10;;;26.10;65.20;;;;;;4780644;55;21011;-35
2022/08/27 02:25:48;;;;;;;16.42;14.73;;;26.10;65.20;;;;;;4737058;59;21098;-26
2022/08/27 02:30:50;;;;;;;15.77;14.15;;;26.10;65.20;;;;;;4756654;55;21550;-31
2022/08/27 02:35:51;;;;;;;16.92;15.32;;;26.10;65.90;;;;;;4744947;55;21004;-26
2022/08/27 02:40:51;;;;;;;17.10;15.38;;;26.10;65.20;;;;;;4760134;55;20995;-27
2022/08/27 02:45:52;;;;;;;15.70;14.20;;;26.10;65.20;;;;;;4748709;55;20991;-32
2022/08/27 02:50:54;;;;;;;16.60;14.82;;;26.10;65.20;;;;;;4763271;55;21007;-27
2022/08/27 02:55:54;;;;;;;16.70;14.90;;;26.10;65.20;;;;;;4769338;55;21502;-27
2022/08/27 03:00:56;;;;;;;16.45;14.87;;;26.10;65.20;;;;;;4751357;55;21000;-30
2022/08/27 03:05:57;;;;;;;16.67;15.07;;;26.10;65.10;;;;;;4751319;55;21503;-29
2022/08/27 03:10:59;;;;;;;16.27;14.77;;;26.10;65.10;;;;;;4750893;55;21485;-26
2022/08/27 03:16:00;;;;;;;17.58;14.40;;;26.10;65.10;;;;;;4756744;55;20983;-37
2022/08/27 03:21:02;;;;;;;16.15;14.50;;;26.10;65.00;;;;;;4736170;59;21556;-36
2022/08/27 03:26:08;;;;;;;15.45;13.88;;;26.10;65.80;;;;;;4799713;55;21469;-29
2022/08/27 03:31:21;;;;;;;;;;;26.10;65.00;;;;;;4742619;55;20999;-29
2022/08/27 03:36:22;;;;;;;15.43;14.02;;;26.10;65.00;;;;;;4735845;59;20283;-31
2022/08/27 03:41:24;;;;;;;15.85;14.23;;;26.10;64.90;;;;;;4760577;55;21063;-31
2022/08/27 03:46:29;;;;;;;15.15;13.65;;;26.10;64.90;;;;;;4737048;59;21027;-33
2022/08/27 03:51:29;;;;;;;16.20;14.45;;;26.10;64.90;;;;;;4736616;59;21465;-32
2022/08/27 03:56:32;;;;;;;15.48;13.95;;;26.10;64.80;;;;;;4735727;59;21003;-30
2022/08/27 04:01:33;;;;;;;15.85;14.15;;;26.10;64.80;;;;;;4739795;55;21545;-25
2022/08/27 04:06:34;;;;;;;16.15;13.93;;;26.10;64.70;;;;;;4735728;55;21098;-27
2022/08/27 04:11:36;;;;;;;15.95;13.48;;;26.10;64.70;;;;;;4736977;55;21015;-37
2022/08/27 04:16:40;;;;;;;17.20;14.18;;;26.10;64.70;;;;;;4736972;55;21008;-25
2022/08/27 04:21:41;;;;;;;17.67;13.85;;;26.10;64.60;;;;;;4758479;55;21458;-27
2022/08/27 04:26:44;;;;;;;15.20;13.55;;;26.10;64.60;;;;;;4736174;59;21059;-26
2022/08/27 04:31:45;;;;;;;15.00;13.57;;;26.10;64.50;;;;;;4739140;55;21963;-33
2022/08/27 04:36:46;;;;;;;15.23;13.45;;;26.10;64.60;;;;;;4780792;55;21079;-27
2022/08/27 04:41:51;;;;;;;15.25;13.38;;;26.10;64.40;;;;;;4742101;55;21028;-29
2022/08/27 04:46:58;;;;;;;14.90;13.50;;;26.10;64.40;;;;;;4752375;55;20983;-33
2022/08/27 04:51:59;;;;;;;14.32;12.82;;;26.10;64.40;;;;;;4757397;55;21039;-30
2022/08/27 04:57:05;;;;;;;14.63;13.13;;;26.10;64.30;;;;;;4735954;59;21003;-35
2022/08/27 05:02:10;;;;;;;17.33;13.38;;;26.00;64.30;;;;;;4736799;55;21082;-27
2022/08/27 05:07:11;;;;;;;14.25;12.82;;;26.10;64.30;;;;;;4752196;55;21111;-30
2022/08/27 05:12:11;;;;;;;15.18;13.57;;;26.00;64.20;;;;;;4751848;55;21569;-27
2022/08/27 05:17:12;;;;;;;17.62;13.27;;;26.10;64.30;;;;;;4753704;55;21059;-27
2022/08/27 05:22:13;;;;;;;15.90;13.90;;;26.00;64.10;;;;;;4737275;59;21011;-27
2022/08/27 05:27:14;;;;;;;14.68;13.07;;;26.00;64.20;;;;;;4736539;59;21095;-27
2022/08/27 05:32:14;;;;;;;15.60;14.00;;;26.00;64.10;;;;;;4763133;55;21023;-29
2022/08/27 05:37:15;;;;;;;16.65;12.70;;;26.00;64.10;;;;;;4749072;55;21053;-33
2022/08/27 05:42:17;;;;;;;16.25;13.62;;;26.00;64.00;;;;;;4736388;59;21083;-26
2022/08/27 05:47:18;;;;;;;15.68;13.80;;;26.00;64.10;;;;;;4756500;55;21582;-28
2022/08/27 05:52:20;;;;;;;15.18;13.68;;;26.00;64.00;;;;;;4806055;55;21019;-28
2022/08/27 05:57:21;;;;;;;14.57;12.88;;;26.00;64.00;;;;;;4753148;55;21955;-28
2022/08/27 06:02:22;;;;;;;16.67;13.07;;;26.00;64.00;;;;;;4754727;55;21042;-27
2022/08/27 06:07:26;;;;;;;15.70;14.07;;;26.00;63.90;;;;;;4746389;55;21119;-27
2022/08/27 06:12:27;;;;;;;14.73;13.23;;;26.00;63.90;;;;;;4828136;55;21016;-29
2022/08/27 06:17:30;;;;;;;14.60;13.10;;;26.00;64.00;;;;;;4745932;55;20988;-26
2022/08/27 06:22:31;;;;;;;14.55;13.13;;;26.00;64.00;;;;;;4738976;55;21033;-29
2022/08/27 06:27:32;;;;;;;15.00;13.50;;;26.00;63.90;;;;;;4745951;55;21020;-27
2022/08/27 06:32:33;;;;;;;17.12;12.90;;;26.00;63.90;;;;;;4758627;55;21426;-29
2022/08/27 06:37:35;;;;;;;14.82;13.20;;;26.00;63.90;;;;;;4736594;59;21514;-32
2022/08/27 06:42:36;;;;;;;14.93;13.35;;;26.00;63.90;;;;;;4745536;55;21430;-29
2022/08/27 06:47:37;;;;;;;15.65;13.13;;;26.00;63.90;;;;;;4745775;55;21047;-28
2022/08/27 06:52:38;;;;;;;15.18;13.68;;;26.00;63.90;;;;;;4736699;55;21002;-27
2022/08/27 06:57:39;;;;;;;15.25;13.62;;;26.00;63.90;;;;;;4816962;55;20992;-27
2022/08/27 07:02:40;;;;;;;16.95;14.15;;;26.00;63.90;;;;;;4740341;55;21000;-28
2022/08/27 07:07:41;;;;;;;16.35;14.10;;;26.00;64.00;;;;;;4740786;55;21529;-29
2022/08/27 07:12:42;;;;;;;17.70;14.27;;;26.00;64.00;;;;;;4754536;55;21059;-28
2022/08/27 07:17:45;;;;;;;17.20;14.73;;;26.00;64.00;;;;;;4743351;55;21051;-29
2022/08/27 07:22:47;;;;;;;16.90;13.95;;;26.00;64.00;;;;;;4735919;59;21533;-30
2022/08/27 07:27:48;;;;;;;15.95;14.15;;;26.00;64.00;;;;;;4742341;55;20992;-29
2022/08/27 07:32:49;;;;;;;17.30;15.10;;;26.00;64.00;;;;;;4744815;55;21051;-27
2022/08/27 07:37:50;;;;;;;15.15;13.60;;;26.00;64.10;;;;;;4743300;55;21274;-30
2022/08/27 07:48:10;;;;;;;16.60;13.93;;;26.00;64.10;;;;;;4735797;55;21015;-28
2022/08/27 07:53:11;;;;;;;17.83;15.32;;;26.00;64.10;;;;;;4748399;55;21526;-26
2022/08/27 07:58:13;;;;;;;16.12;14.43;;;26.00;64.10;;;;;;4740691;55;20984;-28
2022/08/27 08:03:14;;;;;;;16.45;14.85;;;26.00;64.10;;;;;;4780432;55;21465;-29
2022/08/27 08:08:15;;;;;;;17.75;14.43;;;26.00;64.20;;;;;;4745348;55;21071;-30
2022/08/27 08:13:17;;;;;;;16.52;13.50;;;26.00;64.10;;;;;;4765495;55;21055;-29
2022/08/27 08:18:18;;;;;;;17.02;15.05;;;26.00;64.10;;;;;;4760899;55;21119;-27
2022/08/27 08:23:19;;;;;;;17.62;14.90;;;26.00;64.10;;;;;;4738484;55;21051;-30
2022/08/27 08:28:20;;;;;;;15.10;13.60;;;26.00;64.10;;;;;;4738130;55;22295;-29
2022/08/27 08:33:21;;;;;;;17.48;14.55;;;26.10;64.20;;;;;;4736049;55;21134;-30
2022/08/27 08:38:22;;;;;;;16.40;14.68;;;26.00;64.10;;;;;;4735994;55;20968;-27
2022/08/27 08:43:48;;;;;;;17.50;14.77;;;26.10;64.10;;;;;;4738379;55;20999;-29
2022/08/27 08:48:54;;;;;;;16.37;14.70;;;26.10;64.10;;;;;;4736692;55;21481;-29
2022/08/27 08:54:03;;;;;;;;;;;26.10;64.10;;;;;;4757573;55;21585;-28
2022/08/27 08:59:14;;;;;;;16.20;14.57;;;26.10;64.10;;;;;;4737132;59;20084;-27
2022/08/27 09:04:15;;;;;;;16.37;14.70;;;26.10;64.10;;;;;;4739236;55;21580;-28
2022/08/27 09:16:19;;;;;;;16.83;15.13;;;26.10;64.10;;;;;;4735295;59;21493;-29
2022/08/27 09:22:20;;;;;;;17.27;15.48;;;26.10;64.20;;;;;;4751884;55;21059;-41
2022/08/27 09:27:22;;;;;;;16.77;15.15;;;26.10;64.10;;;;;;4745783;55;20976;-27
2022/08/27 09:32:31;;;;;;;16.30;14.63;;;26.10;64.10;;;;;;4741417;55;21051;-27
2022/08/27 09:37:40;;;;;;;17.83;15.95;;;26.10;64.10;;;;;;4758097;55;20983;-29
2022/08/27 09:42:45;;;;;;;16.70;15.00;;;26.10;64.10;;;;;;4785193;55;21031;-27
2022/08/27 09:47:49;;;;;;;17.98;16.05;;;26.10;64.10;;;;;;4736269;59;21529;-29
2022/08/27 09:52:58;;;;;;;17.02;15.23;;;26.20;64.20;;;;;;4761108;55;21054;-29
2022/08/27 09:57:59;;;;;;;16.35;14.75;;;26.10;64.10;;;;;;4754132;55;21020;-28
2022/08/27 10:03:02;;;;;;;17.87;16.10;;;26.20;64.20;;;;;;4747345;55;22018;-29
2022/08/27 10:08:34;;;;;;;17.17;15.45;;;26.20;64.20;;;;;;4781895;55;21744;-27
2022/08/27 10:14:00;;;;;;;18.00;15.85;;;26.20;64.20;;;;;;4739134;55;21146;-28
2022/08/27 10:24:03;;;;;;;17.77;15.85;;;26.20;64.20;;;;;;4737953;55;22184;-28
2022/08/27 10:30:12;;;;;;;17.70;15.90;;;26.20;64.20;;;;;;4762645;55;20996;-26
2022/08/27 10:35:24;;;;;;;16.62;15.02;;;26.20;64.20;;;;;;4752746;55;21135;-27
2022/08/27 10:40:35;;;;;;;17.90;15.82;;;26.20;64.20;;;;;;4737219;55;21133;-27
2022/08/27 10:48:30;;;;;;;17.60;15.90;;;26.20;64.20;;;;;;4736296;59;20988;-29
2022/08/27 10:54:00;;;;;;;18.48;16.65;;;26.20;64.20;;;;;;4758788;55;21066;-27
2022/08/27 11:00:23;;;;;;;17.87;16.08;;;26.20;64.20;;;;;;4737832;55;21066;-28
2022/08/27 11:05:31;;;;;;;18.45;16.55;;;26.20;64.20;;;;;;4736609;59;21067;-28
2022/08/27 11:10:38;;;;;;;17.23;15.50;;;26.20;64.20;;;;;;4756007;55;21071;-28
2022/08/27 11:15:44;;;;;;;17.15;15.45;;;26.20;64.10;;;;;;4753686;55;21059;-27
2022/08/27 11:21:09;;;;;;;16.92;15.32;;;26.20;64.10;;;;;;4742374;55;20976;-26
2022/08/27 11:26:11;;;;;;;18.40;16.58;;;26.20;64.10;;;;;;4747131;55;21522;-28
2022/08/27 11:31:52;;;;;;;18.08;16.27;;;26.20;64.10;;;;;;4736680;55;21000;-28
2022/08/27 11:37:16;;;;;;;18.73;16.75;;;26.20;64.10;;;;;;4735728;59;20991;-30
2022/08/27 11:43:25;;;;;;;18.52;16.75;;;26.20;64.10;;;;;;4736348;59;21521;-30
2022/08/27 11:48:40;;;;;;;18.23;16.30;;;26.20;64.00;;;;;;4795940;55;21122;-30
2022/08/27 11:53:54;;;;;;;18.90;17.00;;;26.20;63.90;;;;;;4742909;55;21058;-26
2022/08/27 11:59:07;;;;;;;17.27;15.50;;;26.20;63.90;;;;;;4752267;55;21101;-27
2022/08/27 12:04:34;;;;;;;17.98;16.12;;;26.20;63.90;;;;;;4744345;55;20971;-28
2022/08/27 12:14:50;;;;;;;18.15;16.35;;;26.30;63.90;;;;;;4751300;55;21502;-27
2022/08/27 12:20:23;;;;;;;18.58;16.67;;;26.30;63.90;;;;;;4736744;55;21006;-28
2022/08/27 12:25:25;;;;;;;18.15;16.23;;;26.30;63.80;;;;;;4769400;55;20987;-26
2022/08/27 12:30:48;;;;;;;18.05;16.25;;;26.20;63.70;;;;;;4737097;55;20976;-28
2022/08/27 12:35:52;;;;;;;17.58;15.80;;;26.20;63.70;;;;;;4759476;55;21066;-28
2022/08/27 12:40:56;;;;;;;17.33;15.63;;;26.30;63.70;;;;;;4749163;55;20980;-27
2022/08/27 12:46:06;;;;;;;17.95;16.05;;;26.30;63.70;;;;;;4757557;55;21018;-29
2022/08/27 12:51:23;;;;;;;17.17;15.55;;;26.30;63.60;;;;;;4762773;55;20987;-27
2022/08/27 12:57:11;;;;;;;18.37;16.48;;;26.30;63.60;;;;;;4736015;55;20991;-28
2022/08/27 13:02:50;;;;;;;17.87;16.02;;;26.30;63.60;;;;;;4745451;55;21039;-30
2022/08/27 13:07:52;;;;;;;18.12;16.12;;;26.30;63.50;;;;;;4751229;55;21380;-29
2022/08/27 13:13:26;;;;;;;17.65;15.85;;;26.30;63.50;;;;;;4801448;55;20996;-25
2022/08/27 13:18:28;;;;;;;17.30;15.60;;;26.30;63.40;;;;;;4737423;55;21536;-32
2022/08/27 13:23:29;;;;;;;18.45;16.55;;;26.30;63.50;;;;;;4741907;55;21470;-32
2022/08/27 13:28:32;;;;;;;17.27;15.40;;;26.30;63.30;;;;;;4759800;55;21015;-29
2022/08/27 13:33:37;;;;;;;17.05;15.32;;;26.30;63.30;;;;;;4744474;55;21498;-28
2022/08/27 13:38:43;;;;;;;18.62;16.73;;;26.30;63.30;;;;;;4756645;55;21031;-29
2022/08/27 13:43:45;;;;;;;;;;;26.30;63.20;;;;;;4757476;55;21453;-36
2022/08/27 13:48:49;;;;;;;17.45;15.35;;;26.30;63.20;;;;;;4738206;55;20089;-30
2022/08/27 13:59:29;;;;;;;16.83;15.18;;;26.30;63.10;;;;;;4736882;55;21024;-28
2022/08/27 14:05:03;;;;;;;17.48;15.63;;;26.30;63.10;;;;;;4813478;55;21513;-30
2022/08/27 14:10:24;;;;;;;17.25;15.65;;;26.30;63.00;;;;;;4776556;55;21068;-28
2022/08/27 14:15:40;;;;;;;17.73;15.93;;;26.30;63.00;;;;;;4827848;55;21509;-26
2022/08/27 14:20:41;;;;;;;16.65;15.05;;;26.40;63.00;;;;;;4750304;55;21095;-27
2022/08/27 14:25:44;;;;;;;15.27;13.85;;;26.30;63.60;;;;;;4778462;55;21079;-27
2022/08/27 14:30:45;;;;;;;16.52;14.93;;;26.30;62.90;;;;;;4748584;55;21108;-32
2022/08/27 14:35:46;;;;;;;16.92;15.10;;;26.40;62.90;;;;;;4740695;55;21054;-35
2022/08/27 14:40:50;;;;;;;16.80;15.05;;;26.40;62.90;;;;;;4750804;55;21007;-30
2022/08/27 14:45:52;;;;;;;16.75;15.10;;;26.30;62.80;;;;;;4753265;55;21015;-28
2022/08/27 14:50:53;;;;;;;16.48;14.87;;;26.40;62.80;;;;;;4776763;55;21066;-29
2022/08/27 14:55:54;;;;;;;16.35;14.75;;;26.40;62.80;;;;;;4735943;55;21051;-28
2022/08/27 15:00:56;;;;;;;17.30;15.45;;;26.40;62.80;;;;;;4750848;55;21507;-27
2022/08/27 15:05:57;;;;;;;15.95;14.23;;;26.40;63.40;;;;;;4750577;55;21640;-28
2022/08/27 15:10:58;;;;;;;16.95;14.35;;;26.30;62.60;;;;;;4735972;59;20991;-27
2022/08/27 15:15:59;;;;;;;16.02;14.38;;;26.40;62.70;;;;;;4757811;55;21063;-28
2022/08/27 15:21:00;;;;;;;15.73;14.32;;;26.40;62.70;;;;;;4775022;55;21023;-30
2022/08/27 15:26:01;;;;;;;15.07;13.65;;;26.40;62.60;;;;;;4742763;55;21544;-27
2022/08/27 15:31:02;;;;;;;16.55;14.87;;;26.40;62.60;;;;;;4751466;55;20996;-28
2022/08/27 15:36:03;;;;;;;15.10;13.62;;;26.40;62.60;;;;;;4749642;55;21067;-27
2022/08/27 15:41:04;;;;;;;14.82;13.43;;;26.40;62.60;;;;;;4751312;55;21031;-25
2022/08/27 15:46:05;;;;;;;15.27;13.75;;;26.40;62.60;;;;;;4787708;55;21104;-32
2022/08/27 15:51:12;;;;;;;15.73;14.13;;;26.40;62.60;;;;;;4736325;59;21007;-28
2022/08/27 15:56:13;;;;;;;16.42;14.65;;;26.40;62.60;;;;;;4777251;55;21498;-27
2022/08/27 16:01:24;;;;;;;15.10;13.62;;;26.40;62.60;;;;;;4756600;55;21011;-29
2022/08/27 16:06:26;;;;;;;14.82;13.43;;;26.40;62.60;;;;;;4801141;55;21094;-30
2022/08/27 16:11:27;;;;;;;15.18;13.77;;;26.40;62.50;;;;;;4815525;55;20996;-26
2022/08/27 16:16:31;;;;;;;15.23;13.73;;;26.40;62.60;;;;;;4778950;55;21012;-28
2022/08/27 16:21:33;;;;;;;14.85;13.40;;;26.40;62.50;;;;;;4751111;55;22241;-28
2022/08/27 16:26:35;;;;;;;14.45;13.07;;;26.40;62.50;;;;;;4749853;55;21581;-28
2022/08/27 16:31:36;;;;;;;15.65;14.00;;;26.40;62.50;;;;;;4751423;55;21537;-28
2022/08/27 16:36:37;;;;;;;14.95;13.38;;;26.40;62.50;;;;;;4735162;56;21040;-34
2022/08/27 16:41:38;;;;;;;14.87;13.32;;;26.40;62.50;;;;;;4769891;55;21536;-31
2022/08/27 16:46:39;;;;;;;14.07;12.75;;;26.40;62.50;;;;;;4751507;55;21067;-37
2022/08/27 16:51:41;;;;;;;15.18;13.65;;;26.40;62.50;;;;;;4737495;55;21003;-34
2022/08/27 16:56:43;;;;;;;14.02;12.63;;;26.40;62.50;;;;;;4735818;59;21625;-30
2022/08/27 17:01:48;;;;;;;13.65;12.43;;;26.40;62.50;;;;;;4806473;55;20983;-27
2022/08/27 17:06:50;;;;;;;14.87;13.40;;;26.40;62.50;;;;;;4767017;55;21509;-28
2022/08/27 17:11:56;;;;;;;14.90;13.40;;;26.40;62.50;;;;;;4748095;55;21613;-25
2022/08/27 17:16:57;;;;;;;13.55;12.32;;;26.40;62.50;;;;;;4755836;55;21015;-30
2022/08/27 17:22:00;;;;;;;14.63;13.23;;;26.40;62.50;;;;;;4758086;55;21011;-31
2022/08/27 17:27:01;;;;;;;14.02;12.73;;;26.40;62.50;;;;;;4736619;55;21470;-29
2022/08/27 17:32:05;;;;;;;14.10;12.80;;;26.40;62.50;;;;;;4765434;55;21513;-31
2022/08/27 17:37:06;;;;;;;14.02;12.63;;;26.40;62.60;;;;;;4737357;55;21051;-31
2022/08/27 17:42:08;;;;;;;13.70;12.40;;;26.40;62.60;;;;;;4739783;55;21466;-29
2022/08/27 17:47:09;;;;;;;13.95;12.60;;;26.40;62.60;;;;;;4742108;55;21530;-32
2022/08/27 17:52:14;;;;;;;14.55;13.05;;;26.40;62.60;;;;;;4738112;55;21067;-28
2022/08/27 17:57:28;;;;;;;14.63;13.23;;;26.40;62.60;;;;;;4736685;55;21577;-28
2022/08/27 18:02:43;;;;;;;14.52;13.18;;;26.40;62.60;;;;;;4769652;55;21469;-29
2022/08/27 18:07:46;;;;;;;14.52;13.13;;;26.40;62.60;;;;;;4743897;55;21089;-28
2022/08/27 18:12:47;;;;;;;14.60;13.20;;;26.40;62.60;;;;;;4777803;55;21530;-30
2022/08/27 18:17:49;;;;;;;14.90;13.50;;;26.40;62.60;;;;;;4768090;55;21003;-37
2022/08/27 18:22:50;;;;;;;14.02;12.65;;;26.30;62.60;;;;;;4747569;55;21043;-34
2022/08/27 18:27:59;;;;;;;15.50;13.48;;;26.40;62.70;;;;;;4784521;55;21533;-34
2022/08/27 18:33:01;;;;;;;14.10;12.70;;;26.40;62.70;;;;;;4822523;55;20999;-30
2022/08/27 18:38:03;;;;;;;13.98;12.57;;;26.40;62.70;;;;;;4746002;55;21046;-30
2022/08/27 18:43:04;;;;;;;14.48;13.10;;;26.40;62.70;;;;;;4736408;55;20984;-32
2022/08/27 18:48:14;;;;;;;13.85;12.52;;;26.40;62.70;;;;;;4736641;59;20987;-30
2022/08/27 18:53:18;;;;;;;14.13;12.63;;;26.40;62.70;;;;;;4763615;55;21095;-29
2022/08/27 18:58:20;;;;;;;14.15;12.80;;;26.40;62.70;;;;;;4766801;55;21437;-26
2022/08/27 19:03:34;;;;;;;14.15;12.85;;;26.40;62.70;;;;;;4833953;55;21600;-32
2022/08/27 19:08:36;;;;;;;15.10;13.50;;;26.40;62.70;;;;;;4735440;59;21027;-31
2022/08/27 19:13:38;;;;;;;14.57;13.07;;;26.30;62.70;;;;;;4759586;55;21078;-27
2022/08/27 19:18:39;;;;;;;14.75;13.25;;;26.30;62.70;;;;;;4758778;55;21015;-27
2022/08/27 19:23:41;;;;;;;14.87;13.38;;;26.40;62.80;;;;;;4758075;55;21067;-31
2022/08/27 19:28:43;;;;;;;14.98;13.48;;;26.40;62.80;;;;;;4740299;55;20979;-26
2022/08/27 19:33:44;;;;;;;14.63;13.18;;;26.40;62.80;;;;;;4755810;55;21550;-27
2022/08/27 19:38:50;;;;;;;15.40;13.90;;;26.40;62.80;;;;;;4746188;55;20995;-27
2022/08/27 19:43:50;;;;;;;13.85;12.45;;;26.40;62.80;;;;;;4748917;55;21027;-29
2022/08/27 19:48:52;;;;;;;13.85;12.55;;;26.40;62.80;;;;;;4749776;55;21004;-28
2022/08/27 19:53:53;;;;;;;14.48;13.10;;;26.40;62.80;;;;;;4811265;55;20991;-27
2022/08/27 19:58:54;;;;;;;14.25;12.85;;;26.40;62.80;;;;;;4737416;55;20983;-28
2022/08/27 20:03:55;;;;;;;14.87;13.35;;;26.40;62.80;;;;;;4738778;55;21719;-29
2022/08/27 20:08:56;;;;;;;15.15;12.73;;;26.40;63.50;;;;;;4735763;59;21071;-30
2022/08/27 20:13:58;;;;;;;14.43;12.93;;;26.40;62.80;;;;;;4741280;55;21047;-33
2022/08/27 20:19:01;;;;;;;14.75;13.35;;;26.40;62.80;;;;;;4747078;55;21575;-28
2022/08/27 20:24:02;;;;;;;13.95;12.55;;;26.40;62.90;;;;;;4759892;55;21490;-28
2022/08/27 20:29:03;;;;;;;14.75;12.90;;;26.40;62.80;;;;;;4753576;55;20967;-30
2022/08/27 20:34:06;;;;;;;14.77;13.27;;;26.40;62.80;;;;;;4741512;55;21003;-34
2022/08/27 20:39:07;;;;;;;13.98;12.57;;;26.40;62.80;;;;;;4778733;55;21473;-33
2022/08/27 20:44:07;;;;;;;13.80;12.37;;;26.40;63.20;;;;;;4819621;55;21015;-31
2022/08/27 20:49:08;;;;;;;13.70;12.18;;;26.30;62.80;;;;;;4735733;59;21055;-28
2022/08/27 20:54:09;;;;;;;13.90;12.50;;;26.40;62.80;;;;;;4736002;59;21490;-27
2022/08/27 21:04:38;;;;;;;13.57;12.27;;;26.40;62.80;;;;;;4735996;55;21051;-29
2022/08/27 21:09:39;;;;;;;13.62;12.32;;;26.30;62.70;;;;;;4735240;59;21100;-26
2022/08/27 21:14:40;;;;;;;13.98;12.15;;;26.30;62.80;;;;;;4753218;55;21011;-28
2022/08/27 21:19:41;;;;;;;13.35;12.15;;;26.30;62.70;;;;;;4798365;55;22260;-27
2022/08/27 21:24:41;;;;;;;13.88;12.48;;;26.30;62.80;;;;;;4761857;55;21429;-28
2022/08/27 21:29:43;;;;;;;13.60;12.30;;;26.30;62.70;;;;;;4740851;55;21790;-36
2022/08/27 21:34:44;;;;;;;14.32;12.27;;;26.30;62.70;;;;;;4778543;55;22057;-34
2022/08/27 21:39:45;;;;;;;13.20;11.95;;;26.30;62.80;;;;;;4745418;55;21016;-27
2022/08/27 21:44:45;;;;;;;13.57;12.05;;;26.30;62.70;;;;;;4755288;55;21653;-26
2022/08/27 21:49:46;;;;;;;13.27;11.98;;;26.30;62.80;;;;;;4736521;59;21035;-29
2022/08/27 21:54:47;;;;;;;12.52;11.32;;;26.30;62.80;;;;;;4798152;55;21541;-25
2022/08/27 21:59:49;;;;;;;13.70;12.35;;;26.30;62.80;;;;;;4760619;55;21027;-26
2022/08/27 22:04:50;;;;;;;12.60;11.40;;;26.30;62.80;;;;;;4754972;55;21007;-28
2022/08/27 22:09:51;;;;;;;13.32;12.02;;;26.30;62.80;;;;;;4753785;55;21016;-27
2022/08/27 22:14:52;;;;;;;12.45;11.12;;;26.30;62.80;;;;;;4784584;55;21473;-28
2022/08/27 22:19:52;;;;;;;13.77;12.07;;;26.30;62.80;;;;;;4739481;55;22195;-30
2022/08/27 22:24:53;;;;;;;13.75;12.27;;;26.30;62.80;;;;;;4742649;55;21006;-27
2022/08/27 22:29:54;;;;;;;13.23;11.82;;;26.30;62.80;;;;;;4762230;55;21011;-29
2022/08/27 22:34:55;;;;;;;12.13;10.93;;;26.30;62.30;;;;;;4756568;55;21024;-31
2022/08/27 22:39:56;;;;;;;12.70;11.48;;;26.30;62.90;;;;;;4736160;59;21027;-35
2022/08/27 22:44:56;;;;;;;13.45;12.10;;;26.30;62.80;;;;;;4743476;55;21023;-37
2022/08/27 22:49:57;;;;;;;12.30;11.10;;;26.30;62.90;;;;;;4753773;55;21803;-31
2022/08/27 22:54:58;;;;;;;12.80;11.50;;;26.30;62.80;;;;;;4766062;55;22109;-29
2022/08/27 22:59:59;;;;;;;11.85;10.68;;;26.30;62.80;;;;;;4754070;55;21007;-37
2022/08/27 23:05:03;;;;;;;12.50;11.30;;;26.30;62.90;;;;;;4746152;55;21071;-35
2022/08/27 23:10:07;;;;;;;12.30;11.10;;;26.30;62.80;;;;;;4735400;59;21027;-32
2022/08/27 23:15:09;;;;;;;13.05;11.82;;;26.30;62.80;;;;;;4762495;55;21015;-28
2022/08/27 23:20:10;;;;;;;12.35;10.95;;;26.30;62.80;;;;;;4771111;55;20992;-30
2022/08/27 23:30:32;;;;;;;12.65;11.35;;;26.30;62.90;;;;;;4736290;55;21088;-29
2022/08/27 23:35:33;;;;;;;12.20;11.00;;;26.30;62.90;;;;;;4737440;55;21063;-30
2022/08/27 23:40:34;;;;;;;11.95;10.75;;;26.30;62.80;;;;;;4738160;55;21015;-30
2022/08/27 23:45:35;;;;;;;11.77;10.68;;;26.30;62.80;;;;;;4739281;55;22156;-36
2022/08/27 23:50:36;;;;;;;12.23;11.10;;;26.30;63.30;;;;;;4738835;55;20996;-28
2022/08/27 23:55:39;;;;;;;12.52;11.02;;;26.30;62.80;;;;;;4767728;55;21489;-28
